Cragsmoor, New York
Current Conditions -  °F | °C
As of 10:54 AM on Friday 24 Oct 2014 (Local Time) from KMGJ Reporting Station
Overcast Overcast  
Wind Chill: 56°   Ceiling: 3400
Heat Index: 56°   Visibility: 10mi
Dew Point: 42°   Wind: 8mph
Humidity: 60%   Direction: 350°N
Pressure: 29.81"   Gusts: 18mph
Location:  41.67°N, 74.39°W
Report Text: KMGJ 241454Z AUTO 35007G16KT 310V010 10SM OVC034 13/06 A2981 RMK AO2 SLP095 T01330056 58001 TSNO
Loading
Personal Weather Stations






























Interactive Weather Map
Tropical Storm Tracking
New forecast layout! Learn more

10-Day Weather Forecast

Advertisements
Track Severe Weather on mobile